createdAt,value
2023-01-03T00:01:37.322Z,101639.83
2023-01-03T00:04:04.583Z,101639.86
2023-01-03T00:06:37.293Z,101643.02
2023-01-03T00:09:06.828Z,101644.58
2023-01-03T00:11:53.069Z,101651.73
2023-01-03T00:14:26.269Z,101656.10
2023-01-03T00:16:55.249Z,101657.86
2023-01-03T00:19:23.477Z,101658.40
2023-01-03T00:21:50.028Z,101662.25
2023-01-03T00:24:17.139Z,101665.23
2023-01-03T00:26:43.865Z,101667.99
2023-01-03T00:29:11.767Z,101674.27
2023-01-03T00:31:39.754Z,101672.73
2023-01-03T00:34:06.563Z,101678.80
2023-01-03T00:36:34.099Z,101683.36
2023-01-03T00:39:00.632Z,101681.83
2023-01-03T00:41:27.608Z,101685.67
2023-01-03T00:43:54.123Z,101687.42
2023-01-03T00:46:21.141Z,101689.41
2023-01-03T00:48:48.018Z,101692.87
2023-01-03T00:51:22.682Z,101690.71
2023-01-03T00:53:51.965Z,101699.67
2023-01-03T00:56:21.492Z,101695.46
2023-01-03T00:58:48.220Z,101694.91
2023-01-03T01:01:25.031Z,101692.55
2023-01-03T01:03:56.806Z,101692.57
2023-01-03T01:06:29.409Z,101700.16
2023-01-03T01:08:57.962Z,101702.55
2023-01-03T01:11:25.792Z,101705.35
2023-01-03T01:13:53.346Z,101713.23
2023-01-03T01:16:22.717Z,101721.17
2023-01-03T01:18:50.708Z,101719.77
2023-01-03T01:21:20.574Z,101725.09
2023-01-03T01:23:47.329Z,101736.45
2023-01-03T01:26:17.265Z,101738.10
2023-01-03T01:28:43.765Z,101743.13
2023-01-03T01:31:13.797Z,101749.04
2023-01-03T01:33:40.463Z,101750.56
2023-01-03T01:36:09.125Z,101756.20
2023-01-03T01:38:35.972Z,101760.50
2023-01-03T01:41:02.728Z,101767.76
2023-01-03T01:43:47.810Z,101776.46
2023-01-03T01:46:27.646Z,101777.16
2023-01-03T01:49:05.139Z,101779.50
2023-01-03T01:51:35.752Z,101781.10
2023-01-03T01:54:06.590Z,101781.33
2023-01-03T01:56:53.559Z,101783.94
2023-01-03T01:59:20.081Z,101788.76
2023-01-03T02:01:49.130Z,101790.27
2023-01-03T02:04:25.920Z,101790.27
2023-01-03T02:06:53.703Z,101792.05
2023-01-03T02:09:20.276Z,101795.44
2023-01-03T02:12:21.197Z,101794.23
2023-01-03T02:15:08.753Z,101795.50
2023-01-03T02:17:46.125Z,101798.16
2023-01-03T02:20:20.080Z,101800.66
2023-01-03T02:23:18.932Z,101801.83
2023-01-03T02:26:27.349Z,101804.21
2023-01-03T02:29:07.435Z,101806.85
2023-01-03T02:31:57.794Z,101809.10
2023-01-03T02:34:30.152Z,101807.77
2023-01-03T02:37:24.531Z,101803.66
2023-01-03T02:39:59.942Z,101804.02
2023-01-03T02:43:05.743Z,101803.37
2023-01-03T02:45:44.318Z,101802.46
2023-01-03T02:48:24.109Z,101807.10
2023-01-03T02:50:56.130Z,101808.88
2023-01-03T02:53:39.201Z,101807.02
2023-01-03T02:56:09.769Z,101799.48
2023-01-03T02:58:39.337Z,101796.31
2023-01-03T03:01:08.710Z,101797.38
2023-01-03T03:03:40.135Z,101792.27
2023-01-03T03:06:23.739Z,101796.69
2023-01-03T03:08:50.286Z,101799.36
2023-01-03T03:11:35.803Z,101799.88
2023-01-03T03:14:15.317Z,101800.34
2023-01-03T03:16:48.796Z,101804.15
2023-01-03T03:19:42.134Z,101804.28
2023-01-03T03:22:36.524Z,101799.81
2023-01-03T03:25:09.511Z,101802.55
2023-01-03T03:27:58.636Z,101803.77
2023-01-03T03:30:27.723Z,101801.70
2023-01-03T03:32:59.329Z,101807.05
2023-01-03T03:35:26.609Z,101806.82
2023-01-03T03:37:56.887Z,101805.48
2023-01-03T03:40:44.494Z,101814.48
2023-01-03T03:43:53.855Z,101812.64
2023-01-03T03:46:30.928Z,101811.02
2023-01-03T03:49:26.707Z,101818.36
2023-01-03T03:51:57.919Z,101825.69
2023-01-03T03:54:25.858Z,101819.19
2023-01-03T03:57:02.294Z,101814.10
2023-01-03T03:59:31.410Z,101816.35
2023-01-03T04:02:01.067Z,101818.44
2023-01-03T04:04:35.759Z,101826.80
2023-01-03T04:07:02.473Z,101832.40
2023-01-03T04:09:29.412Z,101831.10
2023-01-03T04:11:55.847Z,101826.98
2023-01-03T04:14:22.310Z,101823.89
2023-01-03T04:16:48.896Z,101823.09
2023-01-03T04:19:15.419Z,101824.10
2023-01-03T04:21:41.905Z,101829.98
2023-01-03T04:24:08.440Z,101828.86
2023-01-03T04:26:34.891Z,101827.41
2023-01-03T04:29:01.340Z,101831.15
2023-01-03T04:31:27.880Z,101832.34
2023-01-03T04:33:54.307Z,101830.37
2023-01-03T04:36:21.545Z,101832.42
2023-01-03T04:38:48.256Z,101834.27
2023-01-03T04:41:14.814Z,101839.62
2023-01-03T04:43:59.926Z,101842.40
2023-01-03T04:46:26.489Z,101840.95
2023-01-03T04:48:52.948Z,101843.95
2023-01-03T04:51:19.834Z,101848.00
2023-01-03T04:53:46.334Z,101853.42
2023-01-03T04:56:12.781Z,101849.71
2023-01-03T04:58:39.350Z,101854.72
2023-01-03T05:01:10.051Z,101862.23
2023-01-03T05:03:37.928Z,101863.60
2023-01-03T05:06:09.090Z,101871.42
2023-01-03T05:08:36.093Z,101874.66
2023-01-03T05:11:03.127Z,101875.00
2023-01-03T05:13:29.732Z,101875.66
2023-01-03T05:15:56.381Z,101872.45
2023-01-03T05:18:23.282Z,101872.61
2023-01-03T05:21:08.515Z,101871.52
2023-01-03T05:23:53.917Z,101874.00
2023-01-03T05:26:21.864Z,101869.67
2023-01-03T05:28:52.584Z,101870.23
2023-01-03T05:31:20.003Z,101867.36
2023-01-03T05:33:46.778Z,101864.52
2023-01-03T05:36:13.340Z,101866.46
2023-01-03T05:38:39.776Z,101871.61
2023-01-03T05:41:06.848Z,101870.65
2023-01-03T05:43:33.357Z,101874.08
2023-01-03T05:46:00.107Z,101872.67
2023-01-03T05:48:27.016Z,101877.62
2023-01-03T05:50:57.528Z,101879.91
2023-01-03T05:53:24.710Z,101887.19
2023-01-03T05:55:51.442Z,101886.02
2023-01-03T05:58:17.894Z,101886.33
2023-01-03T06:00:44.341Z,101887.29
2023-01-03T06:03:10.799Z,101890.36
2023-01-03T06:05:37.246Z,101894.78
2023-01-03T06:08:03.710Z,101896.39
2023-01-03T06:10:30.200Z,101897.34
2023-01-03T06:12:57.263Z,101902.77
2023-01-03T06:15:23.779Z,101906.22
2023-01-03T06:17:58.074Z,101909.44
2023-01-03T06:20:28.552Z,101912.94
2023-01-03T06:22:55.198Z,101910.48
2023-01-03T06:25:22.563Z,101909.91
2023-01-03T06:27:49.095Z,101914.40
2023-01-03T06:30:16.223Z,101914.30
2023-01-03T06:32:44.135Z,101914.59
2023-01-03T06:35:11.607Z,101920.55
2023-01-03T06:37:38.464Z,101920.55
2023-01-03T06:40:05.977Z,101928.02
2023-01-03T06:42:39.824Z,101926.88
2023-01-03T06:45:25.984Z,101926.07
2023-01-03T06:48:11.064Z,101930.00
2023-01-03T06:51:00.671Z,101936.45
2023-01-03T06:53:32.515Z,101939.66
2023-01-03T06:55:59.592Z,101940.61
2023-01-03T06:58:26.348Z,101944.95
2023-01-03T07:00:53.418Z,101945.23
2023-01-03T07:03:20.098Z,101947.58
2023-01-03T07:05:46.520Z,101947.70
2023-01-03T07:08:13.100Z,101951.81
2023-01-03T07:10:39.589Z,101953.19
2023-01-03T07:13:24.708Z,101950.46
2023-01-03T07:15:51.226Z,101951.39
2023-01-03T07:18:17.652Z,101954.45
2023-01-03T07:20:45.134Z,101965.20
2023-01-03T07:23:12.861Z,101972.04
2023-01-03T07:25:41.346Z,101976.98
2023-01-03T07:28:12.008Z,101979.53
2023-01-03T07:30:40.388Z,101980.19
2023-01-03T07:33:09.391Z,101980.65
2023-01-03T07:35:37.189Z,101983.09
2023-01-03T07:38:05.200Z,101988.51
2023-01-03T07:40:31.769Z,101989.36
2023-01-03T07:43:16.909Z,101988.37
2023-01-03T07:45:44.584Z,101995.63
2023-01-03T07:48:11.615Z,101993.61
2023-01-03T07:50:38.996Z,102002.53
2023-01-03T07:53:07.158Z,102004.36
2023-01-03T07:55:35.742Z,102007.14
2023-01-03T07:58:02.767Z,102008.18
2023-01-03T08:00:29.214Z,102010.95
2023-01-03T08:02:56.257Z,102010.48
2023-01-03T08:05:24.047Z,102013.33
2023-01-03T08:07:52.279Z,102012.58
2023-01-03T08:10:38.998Z,102013.02
2023-01-03T08:13:18.047Z,102010.42
2023-01-03T08:15:48.131Z,102010.59
2023-01-03T08:18:16.345Z,102013.15
2023-01-03T08:20:43.083Z,102013.61
2023-01-03T08:23:09.530Z,102013.77
2023-01-03T08:25:36.326Z,102011.33
2023-01-03T08:28:03.818Z,102010.75
2023-01-03T08:30:31.148Z,102013.35
2023-01-03T08:33:01.383Z,102013.71
2023-01-03T08:35:34.443Z,102013.45
2023-01-03T08:38:03.805Z,102015.92
2023-01-03T08:40:36.683Z,102016.20
2023-01-03T08:43:06.806Z,102017.47
2023-01-03T08:45:33.818Z,102022.98
2023-01-03T08:48:02.783Z,102026.66
2023-01-03T08:50:33.014Z,102031.05
2023-01-03T08:52:59.834Z,102037.03
2023-01-03T08:55:26.555Z,102040.17
2023-01-03T08:57:53.954Z,102041.91
2023-01-03T09:00:20.517Z,102040.05
2023-01-03T09:02:47.140Z,102046.47
2023-01-03T09:05:13.746Z,102049.58
2023-01-03T09:07:40.176Z,102058.30
2023-01-03T09:10:07.178Z,102059.61
2023-01-03T09:12:33.773Z,102064.68
2023-01-03T09:15:00.165Z,102065.27
2023-01-03T09:17:26.597Z,102069.39
2023-01-03T09:19:53.223Z,102069.48
2023-01-03T09:22:19.775Z,102072.47
2023-01-03T09:24:46.252Z,102071.88
2023-01-03T09:27:12.860Z,102074.89
2023-01-03T09:29:39.300Z,102076.93
2023-01-03T09:32:05.983Z,102079.32
2023-01-03T09:34:32.505Z,102083.39
2023-01-03T09:36:58.958Z,102086.05
2023-01-03T09:39:25.430Z,102090.90
2023-01-03T09:42:11.900Z,102087.87
2023-01-03T09:44:40.052Z,102086.06
2023-01-03T09:47:06.585Z,102086.30
2023-01-03T09:49:57.434Z,102088.31
2023-01-03T09:52:46.866Z,102081.86
2023-01-03T09:55:40.281Z,102078.67
2023-01-03T09:58:31.797Z,102076.55
2023-01-03T10:01:25.973Z,102074.40
2023-01-03T10:04:09.832Z,102071.84
2023-01-03T10:06:55.573Z,102072.79
2023-01-03T10:09:46.734Z,102074.59
2023-01-03T10:12:35.087Z,102073.56
2023-01-03T10:15:19.791Z,102070.64
2023-01-03T10:18:08.315Z,102070.23
2023-01-03T10:20:49.088Z,102064.98
2023-01-03T10:23:15.947Z,102065.83
2023-01-03T10:25:45.117Z,102062.15
2023-01-03T10:28:17.663Z,102060.34
2023-01-03T10:31:03.745Z,102054.81
2023-01-03T10:33:48.309Z,102052.99
2023-01-03T10:36:16.826Z,102048.98
2023-01-03T10:38:51.528Z,102051.45
2023-01-03T10:41:45.282Z,102052.56
2023-01-03T10:44:27.271Z,102051.60
2023-01-03T10:46:56.296Z,102045.69
2023-01-03T10:49:28.059Z,102039.95
2023-01-03T10:52:14.557Z,102040.04
2023-01-03T10:54:40.944Z,102034.67
2023-01-03T10:57:07.582Z,102036.42
2023-01-03T10:59:34.873Z,102038.10
2023-01-03T11:02:23.360Z,102042.63
2023-01-03T11:05:12.309Z,102041.93
2023-01-03T11:08:13.287Z,102037.33
2023-01-03T11:10:57.613Z,102036.92
2023-01-03T11:13:40.745Z,102036.05
2023-01-03T11:16:16.166Z,102022.67
2023-01-03T11:18:44.754Z,102025.04
2023-01-03T11:21:23.353Z,102025.55
2023-01-03T11:23:55.948Z,102014.11
2023-01-03T11:26:40.675Z,102018.38
2023-01-03T11:29:27.836Z,102021.02
2023-01-03T11:31:58.233Z,102015.72
2023-01-03T11:35:20.997Z,102006.11
2023-01-03T11:37:57.561Z,102006.10
2023-01-03T11:40:52.086Z,101999.81
2023-01-03T11:43:45.937Z,101995.06
2023-01-03T11:46:45.486Z,101987.73
2023-01-03T11:49:15.207Z,101985.00
2023-01-03T11:51:48.580Z,101982.73
2023-01-03T11:54:49.411Z,101979.64
2023-01-03T11:58:20.963Z,101975.55
2023-01-03T12:01:08.719Z,101979.56
2023-01-03T12:04:07.546Z,101976.09
2023-01-03T12:06:41.851Z,101970.17
2023-01-03T12:09:11.309Z,101965.13
2023-01-03T12:12:04.255Z,101968.16
2023-01-03T12:14:39.828Z,101967.13
2023-01-03T12:17:12.967Z,101968.73
2023-01-03T12:19:39.438Z,101964.47
2023-01-03T12:22:27.595Z,101964.96
2023-01-03T12:25:05.995Z,101959.27
2023-01-03T12:27:36.279Z,101959.20
2023-01-03T12:30:14.943Z,101955.79
2023-01-03T12:32:55.978Z,101957.94
2023-01-03T12:35:51.738Z,101950.60
2023-01-03T12:38:25.900Z,101951.59
2023-01-03T12:41:04.231Z,101951.30
2023-01-03T12:43:58.539Z,101946.23
2023-01-03T12:46:31.562Z,101946.27
2023-01-03T12:49:11.406Z,101940.89
2023-01-03T12:51:38.031Z,101935.53
2023-01-03T12:54:27.829Z,101935.48
2023-01-03T12:57:42.455Z,101927.59
2023-01-03T13:00:25.686Z,101923.11
2023-01-03T13:03:07.224Z,101919.77
2023-01-03T13:06:02.583Z,101915.06
2023-01-03T13:08:31.188Z,101915.90
2023-01-03T13:11:13.233Z,101912.61
2023-01-03T13:13:49.571Z,101914.58
2023-01-03T13:16:34.539Z,101914.89
2023-01-03T13:19:19.910Z,101916.39
2023-01-03T13:21:55.099Z,101915.71
2023-01-03T13:24:40.579Z,101916.19
2023-01-03T13:27:24.962Z,101912.44
2023-01-03T13:29:58.462Z,101909.06
2023-01-03T13:32:36.277Z,101907.73
2023-01-03T13:35:04.538Z,101904.15
2023-01-03T13:37:45.982Z,101906.87
2023-01-03T13:41:07.673Z,101906.28
2023-01-03T13:43:16.871Z,101904.43
2023-01-03T13:45:43.228Z,101909.98
2023-01-03T13:48:37.252Z,101910.16
2023-01-03T13:51:24.219Z,101909.02
2023-01-03T13:54:12.470Z,101906.57
2023-01-03T13:56:45.002Z,101913.73
2023-01-03T13:59:28.949Z,101913.53
2023-01-03T14:02:10.554Z,101912.80
2023-01-03T14:05:04.173Z,101909.99
2023-01-03T14:07:52.713Z,101906.66
2023-01-03T14:10:44.194Z,101908.95
2023-01-03T14:13:39.926Z,101897.64
2023-01-03T14:16:28.227Z,101891.52
2023-01-03T14:19:06.730Z,101894.45
2023-01-03T14:21:47.893Z,101895.61
2023-01-03T14:24:20.851Z,101894.92
2023-01-03T14:26:47.982Z,101893.15
2023-01-03T14:29:21.981Z,101899.96
2023-01-03T14:31:53.444Z,101910.94
2023-01-03T14:34:37.026Z,101911.56
2023-01-03T14:37:12.459Z,101918.26
2023-01-03T14:42:07.155Z,101924.23
2023-01-03T14:44:35.044Z,101924.11
2023-01-03T14:47:04.908Z,101924.29
2023-01-03T14:49:41.493Z,101926.05
2023-01-03T14:52:21.124Z,101928.66
2023-01-03T14:54:55.213Z,101934.56
2023-01-03T14:57:28.530Z,101931.90
2023-01-03T14:59:59.679Z,101936.39
2023-01-03T15:02:28.726Z,101938.49
2023-01-03T15:04:57.682Z,101935.02
2023-01-03T15:07:39.090Z,101938.29
2023-01-03T15:10:11.562Z,101937.76
2023-01-03T15:12:47.017Z,101937.55
2023-01-03T15:15:19.541Z,101936.61
2023-01-03T15:17:49.205Z,101940.77
2023-01-03T15:20:27.555Z,101938.88
2023-01-03T15:22:55.064Z,101938.59
2023-01-03T15:25:33.979Z,101940.44
2023-01-03T15:28:25.041Z,101942.56
2023-01-03T15:30:53.004Z,101940.08
2023-01-03T15:33:33.541Z,101946.20
2023-01-03T15:36:18.173Z,101943.96
2023-01-03T15:38:47.336Z,101942.40
2023-01-03T15:41:45.333Z,101943.95
2023-01-03T15:44:13.265Z,101948.88
2023-01-03T15:46:45.244Z,101941.95
2023-01-03T15:49:18.439Z,101935.20
2023-01-03T15:51:44.881Z,101940.27
2023-01-03T15:54:13.760Z,101937.73
2023-01-03T15:56:48.149Z,101937.06
2023-01-03T15:59:22.088Z,101939.87
2023-01-03T16:01:48.711Z,101943.23
2023-01-03T16:04:15.286Z,101939.30
2023-01-03T16:06:41.835Z,101938.16
2023-01-03T16:09:09.368Z,101937.66
2023-01-03T16:11:35.924Z,101941.45
2023-01-03T16:14:05.510Z,101940.02
2023-01-03T16:16:36.481Z,101941.43
2023-01-03T16:19:04.667Z,101944.17
2023-01-03T16:21:31.786Z,101938.80
2023-01-03T16:23:59.134Z,101934.60
2023-01-03T16:26:26.001Z,101935.48
2023-01-03T16:28:52.501Z,101937.31
2023-01-03T16:31:26.007Z,101936.89
2023-01-03T16:33:52.539Z,101939.83
2023-01-03T16:36:39.273Z,101932.95
2023-01-03T16:39:13.298Z,101936.98
2023-01-03T16:41:39.929Z,101933.75
2023-01-03T16:44:06.408Z,101927.38
2023-01-03T16:46:35.839Z,101922.84
2023-01-03T16:49:02.566Z,101923.20
2023-01-03T16:51:32.632Z,101924.08
2023-01-03T16:54:00.267Z,101920.55
2023-01-03T16:56:27.230Z,101915.93
2023-01-03T16:58:53.623Z,101916.11
2023-01-03T17:01:20.498Z,101913.08
2023-01-03T17:03:47.153Z,101910.73
2023-01-03T17:06:33.459Z,101914.70
2023-01-03T17:09:09.006Z,101906.58
2023-01-03T17:11:35.517Z,101903.73
2023-01-03T17:14:03.143Z,101901.55
2023-01-03T17:16:31.771Z,101897.07
2023-01-03T17:18:58.341Z,101904.08
2023-01-03T17:21:29.342Z,101911.70
2023-01-03T17:24:00.577Z,101910.63
2023-01-03T17:26:27.451Z,101903.64
2023-01-03T17:28:55.073Z,101904.28
2023-01-03T17:31:24.236Z,101903.60
2023-01-03T17:33:52.430Z,101904.20
2023-01-03T17:36:29.125Z,101902.52
2023-01-03T17:39:00.001Z,101903.75
2023-01-03T17:41:27.004Z,101904.89
2023-01-03T17:43:54.306Z,101896.91
2023-01-03T17:46:41.978Z,101896.39
2023-01-03T17:49:24.589Z,101903.77
2023-01-03T17:51:53.439Z,101899.87
2023-01-03T17:54:25.319Z,101900.94
2023-01-03T17:56:52.054Z,101907.79
2023-01-03T17:59:21.594Z,101910.31
2023-01-03T18:01:49.000Z,101909.34
2023-01-03T18:04:15.468Z,101903.05
2023-01-03T18:06:42.094Z,101903.07
2023-01-03T18:09:15.062Z,101906.65
2023-01-03T18:11:41.840Z,101911.09
2023-01-03T18:14:14.545Z,101912.27
2023-01-03T18:16:41.454Z,101906.91
2023-01-03T18:19:08.604Z,101904.65
2023-01-03T18:21:36.161Z,101904.70
2023-01-03T18:24:28.093Z,101906.13
2023-01-03T18:26:55.355Z,101903.48
2023-01-03T18:29:21.956Z,101896.85
2023-01-03T18:31:48.703Z,101897.94
2023-01-03T18:34:15.250Z,101888.39
2023-01-03T18:36:45.954Z,101883.23
2023-01-03T18:39:15.524Z,101881.57
2023-01-03T18:41:42.935Z,101878.83
2023-01-03T18:44:35.800Z,101882.12
2023-01-03T18:47:02.302Z,101883.29
2023-01-03T18:49:28.784Z,101880.86
2023-01-03T18:51:55.785Z,101879.61
2023-01-03T18:54:22.412Z,101876.80
2023-01-03T18:56:49.742Z,101875.16
2023-01-03T18:59:24.024Z,101869.50
2023-01-03T19:01:51.025Z,101872.95
2023-01-03T19:04:17.996Z,101868.80
2023-01-03T19:06:46.568Z,101866.30
2023-01-03T19:09:26.264Z,101872.15
2023-01-03T19:11:54.156Z,101871.56
2023-01-03T19:14:20.960Z,101867.30
2023-01-03T19:16:47.528Z,101866.98
2023-01-03T19:19:14.098Z,101868.78
2023-01-03T19:21:42.707Z,101869.08
2023-01-03T19:24:26.484Z,101867.94
2023-01-03T19:26:57.180Z,101865.27
2023-01-03T19:29:28.337Z,101861.66
2023-01-03T19:31:56.994Z,101860.69
2023-01-03T19:34:26.523Z,101860.94
2023-01-03T19:36:53.585Z,101862.66
2023-01-03T19:39:25.347Z,101860.63
2023-01-03T19:42:15.103Z,101856.31
2023-01-03T19:44:42.427Z,101852.93
2023-01-03T19:47:15.088Z,101848.97
2023-01-03T19:49:43.340Z,101842.81
2023-01-03T19:52:10.301Z,101836.36
2023-01-03T19:54:36.867Z,101832.39
2023-01-03T19:57:03.329Z,101837.69
2023-01-03T19:59:34.707Z,101834.58
2023-01-03T20:04:50.148Z,101829.00
2023-01-03T20:07:16.820Z,101821.98
2023-01-03T20:09:43.204Z,101822.88
2023-01-03T20:12:14.035Z,101824.53
2023-01-03T20:14:43.603Z,101817.70
2023-01-03T20:17:22.018Z,101812.33
2023-01-03T20:19:49.110Z,101807.40
2023-01-03T20:22:44.947Z,101801.06
2023-01-03T20:25:05.209Z,101795.06
2023-01-03T20:27:32.155Z,101790.77
2023-01-03T20:29:58.583Z,101791.83
2023-01-03T20:32:25.139Z,101790.36
2023-01-03T20:34:51.557Z,101790.15
2023-01-03T20:37:21.020Z,101783.47
2023-01-03T20:39:47.494Z,101783.83
2023-01-03T20:42:24.743Z,101781.63
2023-01-03T20:44:51.291Z,101781.45
2023-01-03T20:47:22.185Z,101781.38
2023-01-03T20:49:49.420Z,101775.45
2023-01-03T20:52:16.926Z,101778.41
2023-01-03T20:54:43.712Z,101777.36
2023-01-03T20:57:15.741Z,101777.92
2023-01-03T20:59:42.717Z,101775.00
2023-01-03T21:02:12.870Z,101774.38
2023-01-03T21:04:40.102Z,101772.83
2023-01-03T21:07:26.188Z,101767.77
2023-01-03T21:09:52.727Z,101766.12
2023-01-03T21:12:19.143Z,101760.31
2023-01-03T21:14:49.436Z,101751.98
2023-01-03T21:17:15.915Z,101751.73
2023-01-03T21:19:42.373Z,101744.04
2023-01-03T21:22:19.462Z,101745.14
2023-01-03T21:24:47.868Z,101744.11
2023-01-03T21:27:16.225Z,101735.86
2023-01-03T21:29:42.709Z,101732.54
2023-01-03T21:32:10.254Z,101729.92
2023-01-03T21:34:36.972Z,101727.78
2023-01-03T21:37:03.376Z,101720.07
2023-01-03T21:39:29.854Z,101717.85
2023-01-03T21:42:14.886Z,101711.79
2023-01-03T21:44:41.301Z,101708.86
2023-01-03T21:47:08.584Z,101701.14
2023-01-03T21:49:34.999Z,101700.27
2023-01-03T21:52:01.365Z,101695.83
2023-01-03T21:54:27.848Z,101693.48
2023-01-03T21:56:54.298Z,101695.70
2023-01-03T21:59:20.824Z,101694.42
2023-01-03T22:02:06.444Z,101691.79
2023-01-03T22:04:33.734Z,101694.38
2023-01-03T22:07:03.100Z,101688.77
2023-01-03T22:09:49.876Z,101685.73
2023-01-03T22:12:17.594Z,101680.52
2023-01-03T22:14:45.298Z,101679.39
2023-01-03T22:17:12.027Z,101680.14
2023-01-03T22:19:38.439Z,101674.48
2023-01-03T22:22:05.049Z,101674.15
2023-01-03T22:24:32.312Z,101678.31
2023-01-03T22:26:58.827Z,101680.30
2023-01-03T22:29:25.365Z,101678.13
2023-01-03T22:31:51.898Z,101669.29
2023-01-03T22:34:18.439Z,101664.86
2023-01-03T22:36:44.934Z,101664.14
2023-01-03T22:39:11.367Z,101670.44
2023-01-03T22:41:37.818Z,101673.66
2023-01-03T22:44:04.345Z,101667.48
2023-01-03T22:46:30.886Z,101667.54
2023-01-03T22:48:57.363Z,101659.24
2023-01-03T22:51:24.415Z,101655.25
2023-01-03T22:53:51.348Z,101647.16
2023-01-03T22:56:18.168Z,101646.46
2023-01-03T22:58:46.048Z,101652.82
2023-01-03T23:01:18.522Z,101646.78
2023-01-03T23:03:46.634Z,101640.65
2023-01-03T23:06:15.684Z,101645.41
2023-01-03T23:08:42.277Z,101649.87
2023-01-03T23:11:34.797Z,101649.66
2023-01-03T23:14:07.639Z,101642.66
2023-01-03T23:16:34.405Z,101636.96
2023-01-03T23:19:06.961Z,101631.59
2023-01-03T23:21:33.876Z,101631.58
2023-01-03T23:24:00.722Z,101625.49
2023-01-03T23:26:27.170Z,101616.82
2023-01-03T23:28:57.903Z,101605.40
2023-01-03T23:31:27.275Z,101597.20
2023-01-03T23:33:55.556Z,101585.45
2023-01-03T23:36:22.212Z,101582.08
2023-01-03T23:38:48.748Z,101578.30
2023-01-03T23:41:15.267Z,101575.23
2023-01-03T23:43:41.824Z,101575.26
2023-01-03T23:46:14.855Z,101569.58
2023-01-03T23:48:41.369Z,101565.72
2023-01-03T23:51:09.337Z,101559.52
2023-01-03T23:53:37.677Z,101556.84
2023-01-03T23:56:13.164Z,101554.67
2023-01-03T23:58:39.886Z,101553.11
